createdAt,value
2022-11-18T00:03:37.878Z,14.93
2022-11-18T00:07:40.913Z,14.92
2022-11-18T00:11:53.644Z,15.01
2022-11-18T00:16:03.046Z,15.07
2022-11-18T00:20:03.110Z,14.99
2022-11-18T00:24:06.069Z,14.86
2022-11-18T00:28:06.644Z,14.83
2022-11-18T00:32:07.059Z,14.75
2022-11-18T00:36:09.893Z,14.77
2022-11-18T00:40:14.761Z,14.80
2022-11-18T00:44:15.102Z,14.72
2022-11-18T00:48:21.574Z,14.77
2022-11-18T00:52:21.697Z,14.76
2022-11-18T00:56:24.420Z,14.70
2022-11-18T01:00:24.737Z,14.67
2022-11-18T01:04:25.125Z,14.57
2022-11-18T01:08:26.090Z,14.30
2022-11-18T01:12:41.292Z,14.54
2022-11-18T01:16:41.368Z,14.72
2022-11-18T01:20:41.861Z,14.45
2022-11-18T01:24:41.946Z,14.38
2022-11-18T01:28:45.321Z,14.15
2022-11-18T01:32:45.393Z,14.29
2022-11-18T01:36:45.658Z,14.34
2022-11-18T01:40:45.818Z,14.72
2022-11-18T01:45:22.879Z,14.68
2022-11-18T01:49:23.423Z,14.62
2022-11-18T01:53:28.521Z,14.42
2022-11-18T01:57:32.542Z,14.19
2022-11-18T02:01:35.674Z,14.46
2022-11-18T02:05:37.932Z,14.65
2022-11-18T02:09:39.852Z,14.74
2022-11-18T02:13:39.992Z,14.64
2022-11-18T02:17:57.912Z,14.60
2022-11-18T02:22:15.320Z,14.52
2022-11-18T02:27:17.589Z,14.32
2022-11-18T02:31:30.144Z,14.30
2022-11-18T02:35:36.275Z,14.24
2022-11-18T02:39:44.936Z,13.93
2022-11-18T02:43:51.377Z,13.84
2022-11-18T02:47:57.680Z,14.05
2022-11-18T02:52:00.265Z,13.95
2022-11-18T02:56:02.143Z,14.42
2022-11-18T03:00:02.583Z,14.27
2022-11-18T03:04:07.032Z,14.28
2022-11-18T03:08:16.986Z,14.40
2022-11-18T03:12:32.747Z,14.26
2022-11-18T03:16:39.648Z,14.30
2022-11-18T03:20:52.376Z,14.22
2022-11-18T03:25:04.687Z,14.27
2022-11-18T03:29:13.237Z,14.08
2022-11-18T03:33:20.289Z,14.29
2022-11-18T03:37:29.162Z,14.43
2022-11-18T03:41:33.044Z,14.13
2022-11-18T03:45:39.528Z,14.16
2022-11-18T03:49:48.169Z,14.08
2022-11-18T03:54:09.494Z,14.17
2022-11-18T03:58:20.195Z,14.19
2022-11-18T04:02:23.847Z,14.32
2022-11-18T04:06:44.856Z,14.27
2022-11-18T04:10:55.110Z,14.43
2022-11-18T04:14:57.126Z,14.27
2022-11-18T04:19:00.274Z,14.17
2022-11-18T04:23:04.773Z,14.18
2022-11-18T04:27:08.728Z,14.37
2022-11-18T04:31:09.024Z,14.24
2022-11-18T04:35:09.860Z,14.30
2022-11-18T04:39:10.160Z,13.91
2022-11-18T04:43:12.933Z,14.02
2022-11-18T04:47:14.015Z,14.09
2022-11-18T04:51:14.153Z,13.90
2022-11-18T04:55:14.272Z,13.81
2022-11-18T04:59:20.126Z,13.93
2022-11-18T05:03:20.643Z,14.10
2022-11-18T05:07:21.140Z,14.24
2022-11-18T05:11:33.832Z,14.23
2022-11-18T05:15:36.798Z,14.30
2022-11-18T05:19:37.257Z,14.22
2022-11-18T05:23:37.368Z,14.44
2022-11-18T05:27:37.629Z,14.49
2022-11-18T05:31:40.695Z,14.51
2022-11-18T05:35:41.169Z,14.60
2022-11-18T05:39:41.437Z,14.65
2022-11-18T05:43:41.586Z,14.60
2022-11-18T05:47:56.504Z,14.67
2022-11-18T05:51:56.572Z,14.60
2022-11-18T05:56:06.300Z,14.57
2022-11-18T06:00:07.594Z,14.43
2022-11-18T06:04:20.677Z,14.34
2022-11-18T06:08:22.835Z,14.37
2022-11-18T06:12:30.344Z,14.46
2022-11-18T06:16:40.569Z,14.34
2022-11-18T06:20:45.000Z,14.37
2022-11-18T06:24:46.491Z,14.40
2022-11-18T06:28:50.712Z,14.52
2022-11-18T06:32:50.910Z,14.53
2022-11-18T06:36:53.672Z,14.47
2022-11-18T06:40:53.939Z,14.43
2022-11-18T06:44:54.210Z,14.60
2022-11-18T06:48:55.106Z,14.54
2022-11-18T06:52:57.840Z,14.68
2022-11-18T06:56:58.099Z,14.68
2022-11-18T07:00:58.475Z,14.55
2022-11-18T07:04:58.671Z,14.59
2022-11-18T07:09:04.232Z,14.84
2022-11-18T07:13:04.640Z,14.81
2022-11-18T07:17:04.800Z,14.69
2022-11-18T07:21:06.509Z,14.70
2022-11-18T07:25:09.943Z,14.69
2022-11-18T07:29:10.826Z,14.68
2022-11-18T07:33:11.236Z,14.87
2022-11-18T07:37:11.382Z,14.76
2022-11-18T07:41:16.827Z,14.65
2022-11-18T07:45:17.363Z,14.64
2022-11-18T07:49:17.915Z,14.67
2022-11-18T07:53:18.252Z,14.64
2022-11-18T07:57:22.013Z,14.40
2022-11-18T08:01:25.318Z,14.75
2022-11-18T08:05:27.719Z,14.57
2022-11-18T08:09:28.515Z,14.33
2022-11-18T08:13:33.434Z,14.42
2022-11-18T08:17:37.016Z,14.41
2022-11-18T08:21:40.117Z,14.41
2022-11-18T08:25:42.808Z,14.45
2022-11-18T08:29:48.609Z,14.54
2022-11-18T08:33:50.596Z,14.38
2022-11-18T08:37:51.943Z,14.18
2022-11-18T08:41:54.038Z,14.18
2022-11-18T08:45:59.952Z,13.67
2022-11-18T08:50:02.293Z,13.63
2022-11-18T08:54:02.595Z,13.79
2022-11-18T08:58:02.650Z,14.19
2022-11-18T09:02:05.378Z,14.17
2022-11-18T09:06:10.325Z,14.17
2022-11-18T09:10:12.086Z,14.13
2022-11-18T09:18:38.984Z,14.10
2022-11-18T09:22:41.925Z,14.03
2022-11-18T09:26:43.312Z,13.96
2022-11-18T09:30:44.960Z,14.03
2022-11-18T09:34:49.206Z,13.81
2022-11-18T09:38:53.507Z,14.17
2022-11-18T09:43:12.604Z,13.96
2022-11-18T09:47:30.450Z,13.69
2022-11-18T09:51:43.312Z,13.97
2022-11-18T09:55:46.747Z,14.12
2022-11-18T09:59:48.475Z,13.92
2022-11-18T10:03:50.524Z,13.99
2022-11-18T10:08:15.237Z,14.55
2022-11-18T10:12:38.045Z,14.33
2022-11-18T10:16:57.701Z,14.36
2022-11-18T10:21:15.778Z,14.08
2022-11-18T10:25:22.587Z,13.74
2022-11-18T10:29:26.052Z,14.12
2022-11-18T10:33:32.781Z,14.03
2022-11-18T10:38:07.334Z,13.98
2022-11-18T10:42:06.301Z,13.82
2022-11-18T10:46:22.660Z,13.84
2022-11-18T10:50:39.657Z,13.55
2022-11-18T10:54:42.619Z,13.87
2022-11-18T10:58:52.979Z,14.05
2022-11-18T11:03:01.249Z,13.66
2022-11-18T11:07:20.829Z,14.07
2022-11-18T11:11:31.479Z,13.86
2022-11-18T11:15:44.219Z,13.90
2022-11-18T11:20:02.412Z,13.84
2022-11-18T11:24:02.684Z,13.89
2022-11-18T11:28:15.588Z,13.99
2022-11-18T11:32:32.562Z,13.74
2022-11-18T11:36:50.272Z,13.73
2022-11-18T11:41:08.003Z,13.82
2022-11-18T11:45:22.527Z,13.81
2022-11-18T11:49:46.673Z,13.41
2022-11-18T11:54:20.191Z,13.58
2022-11-18T11:58:44.304Z,13.71
2022-11-18T12:03:16.124Z,13.80
2022-11-18T12:07:24.705Z,13.85
2022-11-18T12:11:47.729Z,13.89
2022-11-18T12:16:26.331Z,13.84
2022-11-18T12:20:49.273Z,14.00
2022-11-18T12:24:53.748Z,14.19
2022-11-18T12:28:54.697Z,14.44
2022-11-18T12:33:01.181Z,14.04
2022-11-18T12:38:02.330Z,14.29
2022-11-18T12:42:45.912Z,14.03
2022-11-18T12:46:58.978Z,13.98
2022-11-18T12:51:00.929Z,13.63
2022-11-18T12:55:05.220Z,13.61
2022-11-18T12:59:16.890Z,13.79
2022-11-18T13:03:28.946Z,13.91
2022-11-18T13:07:47.034Z,13.92
2022-11-18T13:11:56.306Z,14.15
2022-11-18T13:16:20.921Z,14.18
2022-11-18T13:20:33.095Z,14.12
2022-11-18T13:24:46.709Z,14.28
2022-11-18T13:29:06.364Z,14.13
2022-11-18T13:33:18.098Z,14.43
2022-11-18T13:37:26.638Z,14.36
2022-11-18T13:41:33.289Z,14.06
2022-11-18T13:45:39.122Z,14.20
2022-11-18T13:50:15.474Z,13.84
2022-11-18T13:54:27.194Z,13.98
2022-11-18T13:59:15.628Z,14.15
2022-11-18T14:03:08.223Z,13.91
2022-11-18T14:07:36.159Z,14.04
2022-11-18T14:11:43.376Z,13.76
2022-11-18T14:15:47.164Z,14.08
2022-11-18T14:19:50.245Z,14.18
2022-11-18T14:23:53.847Z,14.25
2022-11-18T14:27:57.541Z,14.21
2022-11-18T14:32:18.812Z,14.41
2022-11-18T14:36:23.440Z,14.63
2022-11-18T14:40:28.383Z,14.49
2022-11-18T14:45:01.398Z,14.39
2022-11-18T14:49:23.758Z,14.55
2022-11-18T14:53:27.922Z,14.21
2022-11-18T14:57:32.931Z,14.40
2022-11-18T15:01:39.159Z,14.74
2022-11-18T15:05:40.732Z,14.50
2022-11-18T15:09:42.308Z,14.50
2022-11-18T15:13:46.041Z,14.60
2022-11-18T15:17:48.505Z,14.47
2022-11-18T15:21:52.799Z,14.64
2022-11-18T15:25:55.577Z,14.83
2022-11-18T15:30:01.677Z,14.57
2022-11-18T15:34:06.753Z,14.46
2022-11-18T15:38:20.661Z,14.38
2022-11-18T15:42:23.464Z,14.14
2022-11-18T15:46:30.110Z,14.32
2022-11-18T15:50:30.357Z,14.38
2022-11-18T15:54:30.520Z,14.41
2022-11-18T15:58:35.732Z,14.26
2022-11-18T16:02:39.100Z,14.21
2022-11-18T16:06:40.117Z,14.26
2022-11-18T16:10:52.685Z,14.26
2022-11-18T16:15:12.819Z,14.18
2022-11-18T16:19:18.695Z,14.19
2022-11-18T16:23:18.870Z,14.00
2022-11-18T16:27:21.304Z,13.67
2022-11-18T16:31:34.382Z,13.62
2022-11-18T16:35:37.053Z,13.71
2022-11-18T16:39:37.191Z,13.52
2022-11-18T16:43:37.395Z,13.61
2022-11-18T16:47:38.525Z,13.80
2022-11-18T16:51:43.974Z,13.64
2022-11-18T16:55:44.110Z,13.37
2022-11-18T16:59:44.350Z,12.77
2022-11-18T17:03:45.355Z,12.56
2022-11-18T17:07:48.194Z,12.82
2022-11-18T17:11:48.449Z,12.39
2022-11-18T17:15:48.761Z,12.44
2022-11-18T17:19:48.877Z,12.93
2022-11-18T17:23:52.606Z,13.05
2022-11-18T17:27:52.750Z,13.16
2022-11-18T17:31:53.894Z,13.24
2022-11-18T17:36:03.301Z,13.22
2022-11-18T17:40:06.261Z,13.23
2022-11-18T17:44:09.164Z,13.30
2022-11-18T17:48:09.625Z,13.42
2022-11-18T17:52:09.917Z,13.26
2022-11-18T17:56:13.219Z,13.24
2022-11-18T18:00:16.126Z,13.35
2022-11-18T18:04:20.641Z,13.54
2022-11-18T18:08:21.118Z,13.44
2022-11-18T18:12:36.404Z,13.24
2022-11-18T18:16:36.958Z,13.14
2022-11-18T18:20:39.226Z,13.16
2022-11-18T18:24:39.298Z,13.28
2022-11-18T18:28:42.196Z,13.02
2022-11-18T18:32:42.381Z,13.27
2022-11-18T18:36:42.568Z,13.16
2022-11-18T18:40:43.333Z,13.16
2022-11-18T18:44:58.886Z,13.18
2022-11-18T18:49:02.368Z,13.18
2022-11-18T18:53:02.490Z,13.12
2022-11-18T18:57:02.607Z,12.96
2022-11-18T19:01:12.803Z,12.88
2022-11-18T19:05:13.210Z,12.97
2022-11-18T19:09:13.415Z,13.10
2022-11-18T19:13:13.534Z,13.07
2022-11-18T19:32:32.492Z,10.49
2022-11-18T19:42:00.901Z,10.97
2022-11-18T19:46:22.820Z,10.72
2022-11-18T19:50:44.752Z,10.94
2022-11-18T19:54:56.068Z,11.16
2022-11-18T20:04:14.783Z,10.18
2022-11-18T20:19:29.329Z,9.58
2022-11-18T20:23:52.432Z,10.10
2022-11-18T20:28:04.945Z,9.88
2022-11-18T20:32:20.366Z,9.58
2022-11-18T20:37:02.141Z,9.83
2022-11-18T20:41:26.216Z,8.76
2022-11-18T20:45:40.500Z,8.86
2022-11-18T20:49:46.831Z,9.18
2022-11-18T20:53:57.637Z,9.18
2022-11-18T20:58:01.225Z,9.44
2022-11-18T21:02:17.728Z,9.21
2022-11-18T21:06:18.288Z,9.36
2022-11-18T21:10:21.074Z,9.18
2022-11-18T21:14:24.812Z,9.12
2022-11-18T21:18:25.577Z,8.99
2022-11-18T21:22:28.585Z,8.78
2022-11-18T21:26:33.812Z,9.03
2022-11-18T21:30:33.964Z,8.81
2022-11-18T21:34:34.083Z,8.65
2022-11-18T21:38:34.208Z,8.66
2022-11-18T21:42:37.137Z,8.97
2022-11-18T21:46:38.970Z,8.67
2022-11-18T21:50:40.997Z,8.77
2022-11-18T21:54:41.102Z,8.78
2022-11-18T21:58:44.856Z,8.55
2022-11-18T22:02:44.915Z,8.47
2022-11-18T22:06:45.019Z,8.66
2022-11-18T22:10:48.546Z,8.75
2022-11-18T22:14:53.168Z,8.72
2022-11-18T22:19:03.586Z,8.72
2022-11-18T22:23:06.943Z,8.71
2022-11-18T22:27:11.318Z,8.81
2022-11-18T22:31:20.143Z,8.73
2022-11-18T22:35:20.471Z,8.63
2022-11-18T22:39:21.167Z,8.73
2022-11-18T22:43:21.806Z,8.79
2022-11-18T22:47:24.502Z,8.94
2022-11-18T22:51:24.637Z,8.93
2022-11-18T22:55:24.724Z,8.77
2022-11-18T22:59:25.198Z,8.88
2022-11-18T23:03:28.040Z,8.91
2022-11-18T23:07:28.570Z,9.04
2022-11-18T23:11:41.395Z,9.07
2022-11-18T23:15:41.782Z,8.92
2022-11-18T23:19:46.217Z,8.93
2022-11-18T23:23:47.238Z,8.96
2022-11-18T23:28:15.665Z,8.69
2022-11-18T23:32:26.304Z,8.74
2022-11-18T23:45:53.217Z,8.90
2022-11-18T23:49:53.317Z,8.94
2022-11-18T23:53:59.801Z,8.83
2022-11-18T23:57:59.980Z,8.93
